Time;durP1;ratioP1;P1;durP2;ratioP2;P2;SDS_P1;SDS_P2;PMS_P1;PMS_P2;Temp;Humidity;BMP_temperature;BMP_pressure;BME280_temperature;BME280_humidity;BME280_pressure;Samples;Min_cycle;Max_cycle;Signal;HPM_P1;HPM_P2
2022/08/22 00:01:34;;;;;;;9.90;4.95;;;;;;;16.47;100.00;101720.81;4954408;28;20051;-77
2022/08/22 00:04:09;;;;;;;9.02;4.55;;;;;;;16.47;100.00;101720.81;4943512;28;20051;-78
2022/08/22 00:06:59;;;;;;;13.45;5.03;;;;;;;16.47;100.00;101710.19;4947032;28;20171;-78
2022/08/22 00:09:41;;;;;;;12.70;4.78;;;;;;;16.47;100.00;101711.97;4961687;28;20271;-77
2022/08/22 00:12:22;;;;;;;5.95;4.25;;;;;;;16.47;100.00;101714.63;4984061;28;20049;-78
2022/08/22 00:15:00;;;;;;;11.68;4.72;;;;;;;16.46;100.00;101712.84;5003308;28;20410;-78
2022/08/22 00:17:59;;;;;;;12.45;4.40;;;;;;;16.44;100.00;101720.84;4970216;28;20058;-78
2022/08/22 00:20:56;;;;;;;9.23;4.53;;;;;;;16.44;100.00;101722.63;4946922;28;20054;-78
2022/08/22 00:23:31;;;;;;;7.93;4.13;;;;;;;16.44;100.00;101720.84;4994838;28;20053;-78
2022/08/22 00:26:09;;;;;;;7.95;4.68;;;;;;;16.44;100.00;101725.28;5001103;28;20050;-77
2022/08/22 00:28:43;;;;;;;12.77;4.80;;;;;;;16.42;100.00;101717.31;4977106;28;20329;-78
2022/08/22 00:31:23;;;;;;;10.85;4.75;;;;;;;16.40;100.00;101723.53;4972461;28;20042;-78
2022/08/22 00:34:21;;;;;;;10.77;4.60;;;;;;;16.38;100.00;101716.44;4987186;28;20055;-78
2022/08/22 00:37:01;;;;;;;12.60;4.70;;;;;;;16.37;100.00;101711.16;4961113;28;20522;-78
2022/08/22 00:39:44;;;;;;;10.98;4.78;;;;;;;16.36;100.00;101712.91;4995388;28;20054;-77
2022/08/22 00:42:45;;;;;;;7.00;4.00;;;;;;;16.35;100.00;101724.47;4970398;28;20038;-77
2022/08/22 00:45:37;;;;;;;9.45;4.50;;;;;;;16.33;100.00;101722.69;4987075;28;20068;-78
2022/08/22 00:48:26;;;;;;;13.32;4.93;;;;;;;16.30;100.00;101715.63;5009815;28;20046;-77
2022/08/22 00:51:17;;;;;;;5.90;4.45;;;;;;;16.31;100.00;101724.47;5008403;28;20054;-78
2022/08/22 00:53:56;;;;;;;8.23;4.80;;;;;;;16.29;100.00;101719.16;4973488;28;20046;-78
2022/08/22 00:56:24;;;;;;;9.77;4.40;;;;;;;16.28;100.00;101722.72;5000395;28;20251;-78
2022/08/22 00:59:16;;;;;;;11.15;4.70;;;;;;;16.27;100.00;101720.94;4985402;28;20034;-78
2022/08/22 01:02:06;;;;;;;7.13;4.88;;;;;;;16.27;100.00;101720.06;5007858;28;20042;-76
2022/08/22 01:04:50;;;;;;;7.47;4.93;;;;;;;16.26;100.00;101720.97;4994509;28;20264;-77
2022/08/22 01:07:44;;;;;;;6.95;4.80;;;;;;;16.25;100.00;101716.53;5004926;28;20080;-78
2022/08/22 01:10:53;;;;;;;10.15;4.90;;;;;;;16.24;100.00;101715.66;4969755;28;20037;-79
2022/08/22 01:13:45;;;;;;;10.30;4.25;;;;;;;16.24;100.00;101710.34;4977358;28;20092;-79
2022/08/22 01:16:26;;;;;;;11.75;5.30;;;;;;;16.24;100.00;101720.06;4993738;28;20057;-77
2022/08/22 01:19:09;;;;;;;10.57;4.93;;;;;;;16.23;100.00;101719.22;5020011;28;20064;-77
2022/08/22 01:21:49;;;;;;;5.18;4.28;;;;;;;16.23;100.00;101721.88;5004333;28;20256;-77
2022/08/22 01:25:39;;;;;;;11.07;5.07;;;;;;;16.23;100.00;101723.66;4982220;28;20415;-76
2022/08/22 01:28:01;;;;;;;10.60;4.10;;;;;;;16.22;100.00;101720.13;4983638;28;20149;-77
2022/08/22 01:31:09;;;;;;;7.78;4.45;;;;;;;16.22;100.00;101722.78;4987918;28;20365;-77
2022/08/22 01:34:04;;;;;;;10.80;6.13;;;;;;;16.24;100.00;101731.63;5004162;28;20247;-78
2022/08/22 01:37:03;;;;;;;11.45;4.93;;;;;;;16.24;100.00;101730.72;4981798;28;20041;-77
2022/08/22 01:40:12;;;;;;;7.90;4.18;;;;;;;16.22;100.00;101733.41;4989492;28;20046;-77
2022/08/22 01:42:47;;;;;;;6.72;4.38;;;;;;;16.20;100.00;101740.53;4979119;28;20069;-77
2022/08/22 01:45:37;;;;;;;7.03;4.70;;;;;;;16.21;100.00;101744.06;4999562;28;20050;-78
2022/08/22 01:48:15;;;;;;;7.40;4.03;;;;;;;16.20;100.00;101737.84;5006470;28;20058;-78
2022/08/22 01:50:52;;;;;;;10.20;4.80;;;;;;;16.20;100.00;101744.94;4988182;28;20297;-78
2022/08/22 01:53:23;;;;;;;11.68;4.63;;;;;;;16.19;100.00;101741.41;4981096;28;20045;-78
2022/08/22 01:56:15;;;;;;;10.05;4.40;;;;;;;16.20;100.00;101736.94;4981573;28;20042;-77
2022/08/22 01:59:06;;;;;;;11.73;4.63;;;;;;;16.17;100.00;101748.50;4970340;28;20049;-77
2022/08/22 02:02:08;;;;;;;9.82;4.97;;;;;;;16.16;100.00;101744.06;5000299;28;20342;-77
2022/08/22 02:05:12;;;;;;;6.93;4.38;;;;;;;16.16;100.00;101737.00;5007413;28;20263;-77
2022/08/22 02:08:17;;;;;;;6.95;4.43;;;;;;;16.15;100.00;101742.31;4981099;28;20366;-77
2022/08/22 02:10:57;;;;;;;8.88;4.60;;;;;;;16.12;100.00;101753.84;5003678;28;20050;-77
2022/08/22 02:13:45;;;;;;;10.25;4.47;;;;;;;16.09;100.00;101748.53;4966663;28;20069;-77
2022/08/22 02:16:35;;;;;;;7.68;4.25;;;;;;;16.09;100.00;101747.66;4972176;28;20039;-77
2022/08/22 02:19:13;;;;;;;9.80;4.47;;;;;;;16.09;100.00;101753.00;4987297;28;20071;-77
2022/08/22 02:22:19;;;;;;;9.82;4.65;;;;;;;16.09;100.00;101758.31;4979253;28;20069;-77
2022/08/22 02:24:58;;;;;;;7.30;3.80;;;;;;;16.08;100.00;101751.22;5001448;28;20046;-77
2022/08/22 02:27:38;;;;;;;6.43;4.40;;;;;;;16.07;100.00;101749.47;4948522;28;20073;-77
2022/08/22 02:30:11;;;;;;;12.67;4.73;;;;;;;16.04;100.00;101753.00;4985735;28;20042;-77
2022/08/22 02:32:39;;;;;;;7.45;4.50;;;;;;;16.04;100.00;101752.13;4976976;28;20554;-77
2022/08/22 02:35:28;;;;;;;7.43;4.13;;;;;;;16.04;100.00;101749.47;4989454;28;20061;-77
2022/08/22 02:38:00;;;;;;;7.95;4.35;;;;;;;16.03;100.00;101753.00;4988231;28;20061;-77
2022/08/22 02:40:33;;;;;;;6.47;4.07;;;;;;;16.02;100.00;101746.81;4950243;28;20287;-77
2022/08/22 02:43:11;;;;;;;9.02;4.05;;;;;;;16.01;100.00;101744.16;4938115;28;20507;-77
2022/08/22 02:46:10;;;;;;;9.63;4.20;;;;;;;16.00;100.00;101742.41;4985899;28;20045;-77
2022/08/22 02:48:47;;;;;;;7.20;4.40;;;;;;;15.98;100.00;101743.28;4987513;28;20255;-77
2022/08/22 02:51:20;;;;;;;11.07;4.35;;;;;;;15.97;100.00;101745.94;4966513;28;20415;-76
2022/08/22 02:54:13;;;;;;;6.03;4.35;;;;;;;15.92;100.00;101743.31;4980930;28;20046;-77
2022/08/22 02:57:03;;;;;;;10.65;3.85;;;;;;;15.90;100.00;101741.56;4999075;28;20166;-77
2022/08/22 02:59:38;;;;;;;8.73;4.40;;;;;;;15.88;100.00;101736.25;4952237;28;20183;-77
2022/08/22 03:02:28;;;;;;;6.53;3.95;;;;;;;15.86;100.00;101740.69;4957399;28;20066;-77
2022/08/22 03:05:13;;;;;;;8.40;4.38;;;;;;;15.85;100.00;101736.25;4986870;28;20134;-77
2022/08/22 03:07:52;;;;;;;10.25;4.35;;;;;;;15.84;100.00;101728.28;4988485;28;20280;-77
2022/08/22 03:10:26;;;;;;;10.70;4.50;;;;;;;15.82;100.00;101728.28;4985230;28;20046;-77
2022/08/22 03:13:15;;;;;;;12.98;4.40;;;;;;;15.80;100.00;101724.75;4965296;28;20045;-77
2022/08/22 03:15:51;;;;;;;9.87;4.00;;;;;;;15.78;100.00;101724.78;4949846;28;20042;-77
2022/08/22 03:19:03;;;;;;;8.13;3.97;;;;;;;15.77;100.00;101725.66;4966266;28;20046;-77
2022/08/22 03:21:43;;;;;;;9.40;4.30;;;;;;;15.75;100.00;101718.59;4977570;28;20081;-77
2022/08/22 03:24:32;;;;;;;9.15;3.45;;;;;;;15.73;100.00;101726.56;5000439;28;20054;-77
2022/08/22 03:27:07;;;;;;;8.82;4.10;;;;;;;15.70;100.00;101725.66;4983957;28;20038;-77
2022/08/22 03:29:42;;;;;;;9.80;3.67;;;;;;;15.67;100.00;101723.91;4959164;28;22186;-77
2022/08/22 03:32:15;;;;;;;7.97;3.65;;;;;;;15.65;100.00;101724.78;4974043;28;20050;-77
2022/08/22 03:35:08;;;;;;;9.93;3.60;;;;;;;15.64;100.00;101718.59;4974539;28;20053;-77
2022/08/22 03:37:41;;;;;;;12.25;4.32;;;;;;;15.63;100.00;101722.13;5004918;28;20557;-77
2022/08/22 03:40:37;;;;;;;6.72;3.72;;;;;;;15.62;100.00;101716.84;5003383;28;20049;-77
2022/08/22 03:43:33;;;;;;;8.20;4.40;;;;;;;15.60;100.00;101717.72;4993773;28;20046;-76
2022/08/22 03:46:18;;;;;;;7.20;3.95;;;;;;;15.59;100.00;101710.66;4968936;28;20057;-77
2022/08/22 03:49:14;;;;;;;6.78;4.10;;;;;;;15.59;100.00;101717.72;4988328;28;20160;-77
2022/08/22 03:52:07;;;;;;;9.15;3.80;;;;;;;15.57;100.00;101709.75;4996157;28;20042;-77
2022/08/22 03:55:01;;;;;;;5.68;4.20;;;;;;;15.54;100.00;101715.09;4998729;28;20538;-77
2022/08/22 03:57:38;;;;;;;9.13;5.15;;;;;;;15.53;100.00;101713.31;4992701;28;20411;-77
2022/08/22 04:00:34;;;;;;;5.47;3.88;;;;;;;15.51;100.00;101715.09;4954581;28;20046;-77
2022/08/22 04:03:21;;;;;;;5.05;3.88;;;;;;;15.49;100.00;101714.22;4973826;28;20053;-77
2022/08/22 04:06:25;;;;;;;7.38;4.00;;;;;;;15.48;100.00;101711.56;4984674;28;20042;-77
2022/08/22 04:09:21;;;;;;;9.52;4.55;;;;;;;15.46;100.00;101722.19;5000771;28;20499;-77
2022/08/22 04:12:01;;;;;;;6.53;4.13;;;;;;;15.44;100.00;101728.41;4998631;28;20046;-77
2022/08/22 04:14:59;;;;;;;8.88;3.95;;;;;;;15.41;100.00;101729.31;4983686;28;20244;-77
2022/08/22 04:17:46;;;;;;;7.20;4.00;;;;;;;15.41;100.00;101734.63;4989966;28;20633;-78
2022/08/22 04:20:36;;;;;;;12.68;4.47;;;;;;;15.37;100.00;101733.75;4976776;28;20168;-78
2022/08/22 04:23:23;;;;;;;7.93;4.40;;;;;;;15.38;100.00;101726.66;4982429;28;20042;-78
2022/08/22 04:26:00;;;;;;;6.80;4.25;;;;;;;15.35;100.00;101729.34;4984149;28;20041;-78
2022/08/22 04:29:35;;;;;;;7.13;3.97;;;;;;;15.35;100.00;101726.66;5007116;28;20056;-77
2022/08/22 04:32:13;;;;;;;7.95;4.28;;;;;;;15.33;100.00;101733.72;4951407;28;20050;-78
2022/08/22 04:34:48;;;;;;;12.85;5.30;;;;;;;15.31;100.00;101739.06;4997917;28;20130;-77
2022/08/22 04:37:33;;;;;;;8.23;4.53;;;;;;;15.30;100.00;101745.25;5000214;28;20044;-76
2022/08/22 04:40:22;;;;;;;8.25;4.20;;;;;;;15.30;100.00;101741.72;4988631;28;20053;-78
2022/08/22 04:43:02;;;;;;;4.50;4.10;;;;;;;15.28;100.00;101739.06;5002874;28;20046;-78
2022/08/22 04:45:37;;;;;;;8.15;3.90;;;;;;;15.28;100.00;101747.03;5003317;28;20152;-78
2022/08/22 04:48:17;;;;;;;8.18;4.25;;;;;;;15.28;100.00;101748.81;4936590;28;20086;-76
2022/08/22 04:51:02;;;;;;;9.85;4.45;;;;;;;15.28;100.00;101748.81;4977913;28;20034;-77
2022/08/22 04:53:48;;;;;;;8.40;4.53;;;;;;;15.27;100.00;101755.88;4999262;28;20057;-78
2022/08/22 04:56:37;;;;;;;6.18;4.10;;;;;;;15.29;100.00;101745.25;4994783;28;20033;-76
2022/08/22 04:59:15;;;;;;;7.28;3.72;;;;;;;15.32;100.00;101751.44;4988516;28;20065;-77
2022/08/22 05:01:53;;;;;;;6.60;4.13;;;;;;;15.35;100.00;101758.53;4982982;28;20034;-76
2022/08/22 05:04:24;;;;;;;7.32;4.53;;;;;;;15.38;100.00;101755.84;4970124;28;20061;-77
2022/08/22 05:06:55;;;;;;;;;;;;;;;15.40;100.00;101759.41;4974670;28;20046;-77
2022/08/22 05:09:29;;;;;;;10.93;5.60;;;;;;;15.41;100.00;101766.50;4980264;28;20410;-76
2022/08/22 05:12:07;;;;;;;11.25;6.43;;;;;;;15.44;100.00;101768.25;4960633;28;20045;-78
2022/08/22 05:14:53;;;;;;;8.50;5.30;;;;;;;15.46;100.00;101764.69;4974278;28;20042;-77
2022/08/22 05:17:26;;;;;;;9.45;6.15;;;;;;;15.47;100.00;101763.81;4983072;28;20038;-77
2022/08/22 05:20:01;;;;;;;6.30;5.22;;;;;;;15.49;100.00;101769.13;4967322;28;20057;-77
2022/08/22 05:22:35;;;;;;;8.85;5.72;;;;;;;15.51;100.00;101770.88;4972790;28;20037;-77
2022/08/22 05:25:09;;;;;;;12.73;5.95;;;;;;;15.53;100.00;101763.78;5000525;28;20030;-76
2022/08/22 05:27:43;;;;;;;12.45;6.15;;;;;;;15.57;100.00;101770.84;4998725;28;20038;-77
2022/08/22 05:30:20;;;;;;;8.43;5.70;;;;;;;15.62;100.00;101767.31;4983094;28;20332;-77
2022/08/22 05:33:13;;;;;;;11.27;7.20;;;;;;;15.66;100.00;101774.38;5003326;28;20043;-77
2022/08/22 05:35:50;;;;;;;11.10;8.00;;;;;;;15.70;100.00;101778.81;4966556;28;20068;-77
2022/08/22 05:38:29;;;;;;;15.57;8.95;;;;;;;15.76;100.00;101776.16;5000736;28;20049;-77
2022/08/22 05:41:10;;;;;;;12.18;7.63;;;;;;;15.81;100.00;101776.16;5002977;28;20038;-77
2022/08/22 05:43:42;;;;;;;;;;;;;;;15.84;100.00;101778.78;5007194;28;20038;-77
2022/08/22 05:46:20;;;;;;;12.43;7.20;;;;;;;15.89;100.00;101777.00;4956742;28;19952;-77
2022/08/22 05:49:01;;;;;;;11.57;6.25;;;;;;;15.94;100.00;101780.53;4990496;28;20057;-78
2022/08/22 05:51:48;;;;;;;12.43;6.90;;;;;;;16.01;100.00;101787.59;4964529;28;20245;-77
2022/08/22 05:54:22;;;;;;;12.73;6.85;;;;;;;16.08;100.00;101793.75;4998033;28;20053;-77
2022/08/22 05:57:21;;;;;;;13.55;6.65;;;;;;;16.14;100.00;101785.72;5003325;28;20034;-77
2022/08/22 05:59:59;;;;;;;14.00;6.80;;;;;;;16.19;100.00;101781.28;5006417;28;20507;-77
2022/08/22 06:02:47;;;;;;;12.30;7.07;;;;;;;16.28;100.00;101780.38;4998979;28;20419;-79
2022/08/22 06:05:24;;;;;;;8.98;5.75;;;;;;;16.38;100.00;101787.38;4974749;28;20423;-78
2022/08/22 06:07:59;;;;;;;12.07;5.97;;;;;;;16.46;100.00;101779.34;4973147;28;20048;-77
2022/08/22 06:10:46;;;;;;;12.07;6.60;;;;;;;16.59;100.00;101774.84;4996511;28;20592;-77
2022/08/22 06:13:28;;;;;;;9.65;5.82;;;;;;;16.79;100.00;101786.22;4994533;28;20056;-77
2022/08/22 06:16:19;;;;;;;13.88;5.68;;;;;;;16.99;100.00;101788.75;5003182;28;20045;-76
2022/08/22 06:18:50;;;;;;;8.57;5.72;;;;;;;17.19;100.00;101788.59;5012417;28;20050;-77
2022/08/22 06:21:30;;;;;;;9.48;4.72;;;;;;;17.40;100.00;101797.25;4967220;28;20050;-76
2022/08/22 06:24:11;;;;;;;12.75;5.03;;;;;;;17.57;100.00;101789.97;4987351;28;20523;-78
2022/08/22 06:26:43;;;;;;;10.20;4.60;;;;;;;17.70;100.00;101796.06;4981757;28;20385;-78
2022/08/22 06:29:42;;;;;;;9.65;4.28;;;;;;;17.81;100.00;101798.59;4986325;28;20034;-78
2022/08/22 06:32:15;;;;;;;9.20;4.47;;;;;;;17.90;100.00;101802.06;4961478;28;20508;-77
2022/08/22 06:35:14;;;;;;;8.52;4.32;;;;;;;18.00;100.00;101797.50;4963132;28;21074;-77
2022/08/22 06:37:46;;;;;;;14.20;4.88;;;;;;;18.08;100.00;101794.75;4983960;28;20038;-77
2022/08/22 06:40:17;;;;;;;14.30;3.83;;;;;;;18.14;100.00;101797.31;5002337;28;20053;-78
2022/08/22 06:42:49;;;;;;;11.18;3.05;;;;;;;18.19;100.00;101795.47;4968901;28;20045;-77
2022/08/22 06:45:26;;;;;;;11.57;3.28;;;;;;;18.22;100.00;101787.44;4984391;28;20041;-77
2022/08/22 06:48:04;;;;;;;8.63;2.35;;;;;;;18.25;100.00;101798.06;4987516;28;20630;-77
2022/08/22 06:50:37;;;;;;;12.05;2.83;;;;;;;18.28;100.00;101797.16;4979372;28;20042;-77
2022/08/22 06:53:15;;;;;;;8.73;2.78;;;;;;;18.30;100.00;101796.22;4981363;28;20045;-77
2022/08/22 06:55:50;;;;;;;7.53;2.58;;;;;;;18.30;100.00;101804.22;4974422;28;20053;-77
2022/08/22 06:58:37;;;;;;;15.80;3.20;;;;;;;18.31;100.00;101802.44;5001305;28;20049;-77
2022/08/22 07:01:21;;;;;;;11.43;3.30;;;;;;;18.31;100.00;101803.31;5008617;28;20407;-77
2022/08/22 07:03:53;;;;;;;10.57;3.10;;;;;;;18.35;100.00;101808.59;4977674;28;20064;-77
2022/08/22 07:06:35;;;;;;;11.60;3.08;;;;;;;18.41;100.00;101811.19;4957372;28;20491;-77
2022/08/22 07:09:05;;;;;;;13.77;3.38;;;;;;;18.46;100.00;101801.34;4997954;28;20089;-77
2022/08/22 07:11:40;;;;;;;10.95;3.70;;;;;;;18.46;100.00;101804.00;4995111;28;20502;-77
2022/08/22 07:14:13;;;;;;;13.77;3.85;;;;;;;18.45;100.00;101799.56;5010581;28;20053;-77
2022/08/22 07:16:57;;;;;;;13.52;3.55;;;;;;;18.46;100.00;101796.00;4977533;28;20038;-79
2022/08/22 07:19:31;;;;;;;10.50;3.40;;;;;;;18.49;100.00;101803.97;4984805;28;20045;-77
2022/08/22 07:22:36;;;;;;;6.75;2.90;;;;;;;18.49;100.00;101799.50;4977502;28;20081;-77
2022/08/22 07:25:14;;;;;;;12.07;3.13;;;;;;;18.51;100.00;101803.03;4992875;28;20073;-77
2022/08/22 07:27:58;;;;;;;7.53;2.75;;;;;;;18.56;100.00;101797.63;4995670;28;20491;-77
2022/08/22 07:31:00;;;;;;;15.30;2.85;;;;;;;18.60;100.00;101798.44;5009229;28;20045;-78
2022/08/22 07:33:29;;;;;;;10.63;3.03;;;;;;;18.63;100.00;101801.97;4973951;28;20526;-77
2022/08/22 07:36:04;;;;;;;11.18;3.33;;;;;;;18.71;100.00;101804.50;4988942;28;20062;-78
2022/08/22 07:38:42;;;;;;;11.68;2.85;;;;;;;18.78;100.00;101808.84;4961435;28;20053;-77
2022/08/22 07:41:19;;;;;;;10.02;3.00;;;;;;;18.81;100.00;101797.25;4959508;28;20046;-77
2022/08/22 07:44:15;;;;;;;9.55;2.72;;;;;;;18.92;100.00;101800.66;5002306;28;20042;-78
2022/08/22 07:46:51;;;;;;;7.93;2.60;;;;;;;19.01;100.00;101797.81;4976875;28;20053;-78
2022/08/22 07:49:25;;;;;;;5.07;2.15;;;;;;;19.04;100.00;101795.13;4991038;28;20522;-77
2022/08/22 07:51:57;;;;;;;7.22;2.13;;;;;;;19.13;100.00;101793.19;4984482;28;20050;-77
2022/08/22 07:54:53;;;;;;;6.80;2.53;;;;;;;19.23;100.00;101794.81;4964858;28;20045;-77
2022/08/22 07:57:30;;;;;;;10.70;2.72;;;;;;;19.32;100.00;101801.75;4993436;28;20046;-77
2022/08/22 08:00:00;;;;;;;10.52;3.33;;;;;;;19.33;100.00;101804.41;4984261;28;20068;-79
2022/08/22 08:02:45;;;;;;;10.43;2.80;;;;;;;19.34;100.00;101803.50;4976512;28;20042;-77
2022/08/22 08:05:16;;;;;;;16.02;3.38;;;;;;;19.29;100.00;101808.03;4986266;28;20058;-77
2022/08/22 08:07:46;;;;;;;7.60;2.53;;;;;;;19.28;100.00;101800.91;4958066;28;21046;-78
2022/08/22 08:10:26;;;;;;;8.85;2.75;;;;;;;19.30;100.00;101801.81;4996349;28;20042;-77
2022/08/22 08:13:02;;;;;;;9.43;3.10;;;;;;;19.29;100.00;101800.03;4975708;28;20307;-77
2022/08/22 08:15:33;;;;;;;11.98;2.20;;;;;;;19.33;100.00;101798.19;4988886;28;20065;-77
2022/08/22 08:18:07;;;;;;;9.80;2.63;;;;;;;19.30;100.00;101796.47;4962353;28;20338;-77
2022/08/22 08:20:36;;;;;;;8.38;3.25;;;;;;;19.26;100.00;101789.38;4982943;28;20477;-76
2022/08/22 08:23:08;;;;;;;7.10;2.42;;;;;;;19.23;100.00;101792.13;4994021;28;20401;-76
2022/08/22 08:26:16;;;;;;;9.40;2.80;;;;;;;19.24;100.00;101788.53;4958479;28;20057;-76
2022/08/22 08:28:57;;;;;;;6.40;2.72;;;;;;;19.25;100.00;101795.66;4936828;28;20057;-77
2022/08/22 08:31:34;;;;;;;8.98;3.00;;;;;;;19.25;100.00;101782.28;4992740;28;20049;-77
2022/08/22 08:34:14;;;;;;;9.35;2.55;;;;;;;19.28;100.00;101793.81;4973340;28;20038;-77
2022/08/22 08:36:43;;;;;;;5.88;2.42;;;;;;;19.32;100.00;101775.03;4976807;28;20483;-77
2022/08/22 08:39:31;;;;;;;7.22;2.33;;;;;;;19.30;100.00;101772.41;4948997;28;20049;-77
2022/08/22 08:46:00;;;;;;;7.88;2.20;;;;;;;19.38;100.00;101778.47;4971562;28;20508;-77
2022/08/22 08:48:54;;;;;;;8.27;2.80;;;;;;;19.40;100.00;101775.78;4988051;28;20042;-77
2022/08/22 08:51:56;;;;;;;8.63;2.67;;;;;;;19.39;100.00;101774.88;4994081;28;20050;-77
2022/08/22 08:54:46;;;;;;;6.60;2.45;;;;;;;19.46;100.00;101771.19;4956620;28;20063;-77
2022/08/22 08:57:20;;;;;;;13.68;2.90;;;;;;;19.56;100.00;101776.38;4988190;28;20046;-77
2022/08/22 08:59:52;;;;;;;5.82;2.20;;;;;;;19.67;100.00;101775.22;4972531;28;20187;-76
2022/08/22 09:02:51;;;;;;;6.55;2.22;;;;;;;19.71;100.00;101784.06;5008252;28;20054;-77
2022/08/22 09:05:37;;;;;;;4.78;2.45;;;;;;;19.76;100.00;101776.00;4997793;28;20042;-78
2022/08/22 09:08:23;;;;;;;6.93;2.33;;;;;;;19.84;100.00;101772.25;5003772;28;20057;-78
2022/08/22 09:11:08;;;;;;;6.75;2.92;;;;;;;19.93;100.00;101776.53;4965684;28;20046;-77
2022/08/22 09:14:12;;;;;;;6.47;2.28;;;;;;;20.02;100.00;101792.41;4991531;28;20049;-77
2022/08/22 09:17:02;;;;;;;7.18;2.42;;;;;;;20.11;100.00;101777.03;4976323;28;20406;-76
2022/08/22 09:19:58;;;;;;;8.57;2.35;;;;;;;20.18;100.00;101782.22;4982431;28;20034;-77
2022/08/22 09:23:02;;;;;;;9.70;3.15;;;;;;;20.28;100.00;101790.06;4987916;28;20037;-77
2022/08/22 09:25:54;;;;;;;9.27;2.75;;;;;;;20.35;100.00;101786.34;4959739;28;20045;-77
2022/08/22 09:28:31;;;;;;;8.88;2.40;;;;;;;20.39;100.00;101790.69;5007162;28;20491;-77
2022/08/22 09:31:12;;;;;;;9.68;2.40;;;;;;;20.43;100.00;101785.25;4960708;28;20286;-77
2022/08/22 09:34:16;;;;;;;;;;;;;;;20.43;100.00;101784.34;4987002;28;20081;-76
2022/08/22 09:37:29;;;;;;;5.88;2.40;;;;;;;20.45;100.00;101780.75;4986363;28;20211;-78
2022/08/22 09:40:12;;;;;;;4.60;2.33;;;;;;;20.52;100.00;101775.25;4997398;28;20060;-77
2022/08/22 09:43:01;;;;;;;12.20;2.85;;;;;;;20.54;100.00;101773.41;4962084;28;20038;-78
2022/08/22 09:45:39;;;;;;;6.80;2.60;;;;;;;20.55;100.00;101778.72;5005742;28;20064;-78
2022/08/22 09:48:28;;;;;;;9.13;2.53;;;;;;;20.56;100.00;101764.41;5003939;28;20510;-77
2022/08/22 09:51:05;;;;;;;7.13;2.13;;;;;;;20.66;100.00;101773.13;5009021;28;20304;-77
2022/08/22 09:54:03;;;;;;;6.15;2.53;;;;;;;20.70;100.00;101764.13;4972392;28;20240;-76
2022/08/22 09:56:31;;;;;;;12.60;2.42;;;;;;;20.77;100.00;101768.38;4977932;28;20045;-77
2022/08/22 09:59:02;;;;;;;9.23;2.97;;;;;;;20.90;100.00;101765.41;4992376;28;20121;-76
2022/08/22 10:01:39;;;;;;;;;;;;;;;20.98;100.00;101771.44;5000919;28;20048;-76
2022/08/22 10:04:27;;;;;;;13.88;2.90;;;;;;;21.14;100.00;101755.88;4998036;28;19921;-77
2022/08/22 10:07:21;;;;;;;7.18;2.40;;;;;;;21.30;100.00;101762.56;5003050;28;20049;-76
2022/08/22 10:10:29;;;;;;;7.53;2.40;;;;;;;21.37;100.00;101758.78;4968345;28;20172;-77
2022/08/22 10:13:02;;;;;;;8.07;2.53;;;;;;;21.48;100.00;101761.22;4956921;28;20165;-77
2022/08/22 10:15:56;;;;;;;6.53;2.38;;;;;;;21.43;100.00;101758.63;5005206;28;20041;-78
2022/08/22 10:18:37;;;;;;;9.45;2.40;;;;;;;21.38;100.00;101755.22;5000286;28;20049;-77
2022/08/22 10:21:59;;;;;;;8.10;2.42;;;;;;;21.40;100.00;101748.00;5004904;28;20046;-77
2022/08/22 10:24:42;;;;;;;8.25;2.83;;;;;;;21.50;100.00;101747.78;4994823;28;20042;-80
2022/08/22 10:27:26;;;;;;;6.70;2.40;;;;;;;21.62;100.00;101747.41;4988078;28;20042;-78
2022/08/22 10:30:23;;;;;;;10.25;2.55;;;;;;;21.74;100.00;101741.72;4970641;28;20042;-79
2022/08/22 10:33:13;;;;;;;7.97;2.45;;;;;;;21.82;100.00;101749.53;4992528;28;20054;-78
2022/08/22 10:35:57;;;;;;;7.78;2.92;;;;;;;21.80;100.00;101751.38;4987483;28;20042;-78
2022/08/22 10:38:44;;;;;;;6.97;2.90;;;;;;;21.80;100.00;101738.84;4999871;28;20049;-78
2022/08/22 10:41:40;;;;;;;5.03;1.80;;;;;;;21.79;100.00;101744.25;4980448;28;20057;-78
2022/08/22 10:44:29;;;;;;;4.70;2.00;;;;;;;21.73;100.00;101750.66;4951177;28;20049;-77
2022/08/22 10:47:12;;;;;;;12.10;3.05;;;;;;;21.83;100.00;101745.03;5000751;28;20046;-77
2022/08/22 10:49:48;;;;;;;8.25;2.35;;;;;;;22.04;100.00;101744.41;4986853;28;20049;-77
2022/08/22 10:52:36;;;;;;;9.38;4.00;;;;;;;22.11;100.00;101737.03;5009550;28;20069;-78
2022/08/22 10:55:22;;;;;;;5.13;2.33;;;;;;;22.24;100.00;101750.97;4993792;28;20042;-78
2022/08/22 10:58:08;;;;;;;7.95;2.50;;;;;;;22.35;100.00;101743.47;4975837;28;20073;-77
2022/08/22 11:00:53;;;;;;;8.98;2.65;;;;;;;22.43;99.96;101736.03;4974323;28;20498;-77
2022/08/22 11:03:37;;;;;;;7.90;2.85;;;;;;;22.52;100.00;101735.75;5001671;28;20037;-77
2022/08/22 11:06:24;;;;;;;6.53;2.75;;;;;;;22.57;99.09;101739.16;4997891;28;20046;-78
2022/08/22 11:09:05;;;;;;;7.65;2.58;;;;;;;22.55;98.79;101732.06;5003668;28;20060;-78
2022/08/22 11:12:03;;;;;;;;;;;;;;;22.58;97.92;101732.84;4988879;28;20034;-77
2022/08/22 11:15:04;;;;;;;8.63;3.33;;;;;;;22.66;99.94;101732.59;4977196;28;19922;-78
2022/08/22 11:17:54;;;;;;;9.75;2.40;;;;;;;22.81;98.86;101733.03;5002855;28;20054;-77
2022/08/22 11:20:55;;;;;;;9.55;2.75;;;;;;;22.88;98.18;101727.38;5004252;28;20037;-78
2022/08/22 11:23:40;;;;;;;8.38;3.40;;;;;;;22.86;96.82;101728.38;4986938;28;20054;-77
2022/08/22 11:26:39;;;;;;;9.65;3.08;;;;;;;22.91;96.49;101718.31;4992864;28;20041;-77
2022/08/22 11:29:45;;;;;;;10.02;2.65;;;;;;;23.06;97.50;101719.63;4958665;28;20495;-76
2022/08/22 11:32:36;;;;;;;7.23;2.20;;;;;;;23.15;95.49;101714.81;4968748;28;20499;-76
2022/08/22 11:35:48;;;;;;;8.93;2.88;;;;;;;23.17;94.33;101706.69;5010814;28;20387;-79
2022/08/22 11:38:42;;;;;;;5.78;2.83;;;;;;;23.20;95.71;101706.59;4970416;28;20050;-77
2022/08/22 11:41:20;;;;;;;8.57;2.85;;;;;;;23.27;94.63;101713.50;5001989;28;20491;-76
2022/08/22 11:43:52;;;;;;;4.40;2.22;;;;;;;23.32;95.37;101708.81;4964893;28;20506;-77
2022/08/22 11:46:27;;;;;;;6.28;2.83;;;;;;;23.27;94.13;101702.75;4981876;28;20033;-78
2022/08/22 11:49:28;;;;;;;10.27;2.72;;;;;;;23.30;94.91;101709.81;4986639;28;20057;-76
2022/08/22 11:52:27;;;;;;;6.60;2.20;;;;;;;23.35;94.75;101714.09;4978987;28;20589;-77
2022/08/22 11:55:21;;;;;;;8.55;2.38;;;;;;;23.31;92.25;101719.66;4964866;28;20046;-77
2022/08/22 11:58:41;;;;;;;9.73;2.50;;;;;;;23.15;91.50;101705.88;4966023;28;20267;-75
2022/08/22 12:01:15;;;;;;;11.23;2.60;;;;;;;23.05;92.72;101705.31;4973290;28;20125;-77
2022/08/22 12:04:03;;;;;;;6.95;2.45;;;;;;;22.95;93.13;101703.88;4933245;28;20419;-76
2022/08/22 12:06:50;;;;;;;6.50;2.25;;;;;;;22.86;92.52;101697.00;5003946;28;20376;-76
2022/08/22 12:09:24;;;;;;;5.70;1.90;;;;;;;22.78;92.82;101702.63;4967230;28;20045;-77
2022/08/22 12:12:11;;;;;;;11.40;3.38;;;;;;;22.75;92.77;101693.81;5001247;28;20126;-77
2022/08/22 12:14:47;;;;;;;6.00;2.38;;;;;;;22.67;92.21;101693.19;4949767;28;20049;-78
2022/08/22 12:17:47;;;;;;;7.88;2.35;;;;;;;22.63;91.89;101696.91;5004781;28;20065;-78
2022/08/22 12:20:53;;;;;;;6.65;2.17;;;;;;;22.63;92.91;101683.47;5000243;28;20053;-78
2022/08/22 12:23:48;;;;;;;6.32;1.90;;;;;;;22.79;93.74;101668.56;5009196;28;20427;-78
2022/08/22 12:26:34;;;;;;;8.88;2.00;;;;;;;22.93;90.90;101676.16;5004263;28;20050;-77
2022/08/22 12:29:24;;;;;;;5.78;2.33;;;;;;;22.94;90.00;101670.72;4994899;28;20049;-78
2022/08/22 12:32:01;;;;;;;9.40;2.22;;;;;;;22.99;88.30;101665.19;4993545;28;20045;-77
2022/08/22 12:34:43;;;;;;;4.38;1.83;;;;;;;23.09;87.19;101666.66;4965234;28;20550;-78
2022/08/22 12:37:24;;;;;;;4.38;1.80;;;;;;;23.11;85.34;101666.59;4978629;28;20378;-77
2022/08/22 12:40:16;;;;;;;3.28;1.63;;;;;;;23.06;80.68;101663.19;4985501;28;20407;-77
2022/08/22 12:43:24;;;;;;;3.70;1.63;;;;;;;23.06;81.53;101655.13;4989930;28;20129;-77